createdAt,value
2023-05-23T00:00:33.804Z,23.20
2023-05-23T00:03:03.095Z,22.88
2023-05-23T00:05:31.713Z,20.77
2023-05-23T00:07:59.930Z,20.83
2023-05-23T00:10:28.240Z,21.50
2023-05-23T00:12:58.194Z,22.67
2023-05-23T00:15:26.516Z,21.67
2023-05-23T00:17:56.305Z,21.05
2023-05-23T00:20:24.844Z,22.50
2023-05-23T00:22:54.529Z,19.00
2023-05-23T00:25:22.960Z,21.83
2023-05-23T00:27:51.197Z,23.10
2023-05-23T00:30:19.521Z,23.33
2023-05-23T00:32:47.861Z,24.77
2023-05-23T00:35:17.990Z,24.83
2023-05-23T00:37:46.227Z,22.30
2023-05-23T00:40:14.664Z,25.08
2023-05-23T00:42:43.077Z,24.43
2023-05-23T00:45:12.810Z,22.47
2023-05-23T00:47:41.391Z,19.67
2023-05-23T00:50:14.694Z,19.53
2023-05-23T00:52:46.207Z,18.00
2023-05-23T00:55:15.170Z,17.23
2023-05-23T00:57:44.707Z,17.13
2023-05-23T01:00:15.411Z,15.87
2023-05-23T01:02:46.571Z,16.63
2023-05-23T01:05:18.531Z,16.47
2023-05-23T01:07:48.611Z,15.57
2023-05-23T01:10:18.644Z,15.47
2023-05-23T01:12:58.230Z,16.13
2023-05-23T01:15:32.590Z,15.90
2023-05-23T01:18:04.540Z,16.47
2023-05-23T01:20:37.952Z,15.83
2023-05-23T01:23:31.148Z,16.37
2023-05-23T01:26:14.819Z,16.77
2023-05-23T01:28:47.452Z,17.23
2023-05-23T01:31:17.629Z,16.33
2023-05-23T01:33:50.115Z,17.33
2023-05-23T01:36:18.460Z,17.73
2023-05-23T01:38:46.680Z,19.80
2023-05-23T01:41:14.982Z,17.60
2023-05-23T01:43:44.953Z,18.67
2023-05-23T01:46:14.169Z,16.87
2023-05-23T01:48:43.216Z,17.20
2023-05-23T01:51:11.828Z,17.57
2023-05-23T01:53:40.277Z,21.23
2023-05-23T01:56:09.610Z,20.40
2023-05-23T01:58:37.889Z,19.67
2023-05-23T02:01:07.995Z,20.77
2023-05-23T02:03:38.171Z,21.50
2023-05-23T02:06:06.976Z,21.70
2023-05-23T02:08:36.254Z,22.07
2023-05-23T02:11:04.601Z,23.00
2023-05-23T02:13:32.863Z,22.03
2023-05-23T02:16:01.285Z,21.67
2023-05-23T02:18:30.952Z,21.23
2023-05-23T02:20:59.232Z,21.23
2023-05-23T02:23:27.468Z,21.42
2023-05-23T02:25:56.205Z,22.33
2023-05-23T02:28:24.511Z,21.03
2023-05-23T02:30:52.769Z,21.53
2023-05-23T02:33:21.785Z,21.27
2023-05-23T02:35:51.625Z,20.47
2023-05-23T02:38:20.907Z,21.80
2023-05-23T02:40:50.508Z,22.83
2023-05-23T02:43:19.171Z,21.93
2023-05-23T02:45:54.967Z,23.87
2023-05-23T02:48:23.306Z,23.50
2023-05-23T02:50:53.482Z,20.83
2023-05-23T02:53:22.659Z,20.53
2023-05-23T02:55:51.239Z,19.97
2023-05-23T02:58:20.808Z,18.17
2023-05-23T03:00:49.220Z,18.87
2023-05-23T03:03:18.580Z,16.97
2023-05-23T03:05:46.972Z,18.13
2023-05-23T03:08:16.915Z,17.67
2023-05-23T03:10:45.185Z,17.33
2023-05-23T03:13:13.407Z,16.00
2023-05-23T03:15:41.907Z,15.77
2023-05-23T03:18:11.097Z,15.50
2023-05-23T03:20:39.350Z,14.70
2023-05-23T03:23:07.589Z,14.10
2023-05-23T03:25:37.543Z,14.03
2023-05-23T03:28:06.334Z,13.50
2023-05-23T03:30:34.522Z,14.33
2023-05-23T03:33:03.149Z,14.93
2023-05-23T03:35:31.803Z,13.37
2023-05-23T03:38:00.204Z,12.50
2023-05-23T03:40:28.420Z,13.80
2023-05-23T03:43:05.714Z,15.30
2023-05-23T03:45:36.426Z,15.47
2023-05-23T03:48:09.501Z,15.87
2023-05-23T03:50:37.755Z,16.43
2023-05-23T03:53:06.112Z,16.50
2023-05-23T03:55:34.526Z,15.77
2023-05-23T03:58:04.595Z,17.07
2023-05-23T04:00:32.885Z,16.87
2023-05-23T04:03:02.843Z,16.03
2023-05-23T04:05:31.826Z,15.90
2023-05-23T04:08:02.315Z,16.30
2023-05-23T04:10:31.600Z,13.47
2023-05-23T04:13:00.603Z,11.67
2023-05-23T04:15:30.418Z,13.00
2023-05-23T04:18:04.775Z,13.00
2023-05-23T04:20:34.016Z,11.30
2023-05-23T04:23:02.340Z,11.67
2023-05-23T04:25:34.202Z,11.03
2023-05-23T04:28:35.907Z,11.33
2023-05-23T04:31:07.162Z,11.30
2023-05-23T04:33:38.032Z,12.00
2023-05-23T04:36:09.228Z,12.17
2023-05-23T04:38:41.095Z,12.10
2023-05-23T04:41:11.309Z,12.13
2023-05-23T04:44:04.832Z,12.83
2023-05-23T04:46:42.416Z,12.97
2023-05-23T04:49:34.236Z,11.60
2023-05-23T04:52:03.777Z,11.40
2023-05-23T04:54:33.671Z,11.43
2023-05-23T04:57:06.283Z,12.13
2023-05-23T04:59:35.011Z,11.90
2023-05-23T05:02:06.972Z,11.80
2023-05-23T05:04:36.396Z,12.20
2023-05-23T05:07:04.721Z,11.70
2023-05-23T05:09:33.066Z,13.43
2023-05-23T05:12:01.644Z,13.77
2023-05-23T05:14:30.711Z,13.33
2023-05-23T05:16:59.354Z,14.63
2023-05-23T05:19:36.544Z,13.90
2023-05-23T05:22:05.236Z,12.87
2023-05-23T05:24:34.292Z,12.87
2023-05-23T05:27:02.610Z,13.20
2023-05-23T05:29:33.859Z,12.10
2023-05-23T05:32:03.435Z,10.13
2023-05-23T05:34:32.364Z,9.70
2023-05-23T05:37:02.586Z,10.70
2023-05-23T05:39:30.826Z,8.53
2023-05-23T05:41:59.417Z,8.30
2023-05-23T05:44:27.976Z,7.87
2023-05-23T05:46:56.270Z,8.83
2023-05-23T05:49:24.557Z,8.13
2023-05-23T05:51:54.182Z,8.13
2023-05-23T05:54:23.785Z,8.43
2023-05-23T05:56:52.142Z,8.23
2023-05-23T05:59:20.500Z,9.17
2023-05-23T06:01:48.784Z,8.77
2023-05-23T06:04:17.210Z,10.70
2023-05-23T06:06:46.053Z,10.27
2023-05-23T06:09:14.351Z,10.00
2023-05-23T06:11:44.000Z,9.30
2023-05-23T06:14:12.480Z,10.80
2023-05-23T06:16:44.926Z,10.93
2023-05-23T06:19:13.202Z,9.50
2023-05-23T06:21:42.294Z,8.87
2023-05-23T06:24:12.333Z,9.07
2023-05-23T06:26:40.581Z,10.37
2023-05-23T06:29:11.323Z,9.50
2023-05-23T06:31:39.777Z,9.47
2023-05-23T06:34:08.084Z,8.73
2023-05-23T06:36:36.410Z,10.10
2023-05-23T06:39:04.759Z,10.07
2023-05-23T06:41:33.155Z,9.73
2023-05-23T06:44:01.485Z,9.47
2023-05-23T06:46:33.600Z,9.53
2023-05-23T06:49:14.276Z,8.97
2023-05-23T06:51:45.329Z,9.13
2023-05-23T06:54:13.942Z,8.30
2023-05-23T06:56:42.622Z,8.83
2023-05-23T06:59:11.056Z,8.73
2023-05-23T07:01:41.623Z,8.27
2023-05-23T07:04:09.972Z,8.37
2023-05-23T07:06:39.920Z,8.87
2023-05-23T07:09:09.406Z,8.37
2023-05-23T07:11:39.826Z,9.00
2023-05-23T07:14:09.668Z,8.90
2023-05-23T07:16:44.259Z,8.80
2023-05-23T07:19:12.686Z,7.80
2023-05-23T07:21:47.752Z,8.47
2023-05-23T07:24:18.759Z,8.37
2023-05-23T07:26:47.133Z,9.80
2023-05-23T07:29:16.425Z,10.37
2023-05-23T07:31:48.249Z,9.53
2023-05-23T07:34:16.703Z,10.47
2023-05-23T07:36:57.420Z,10.77
2023-05-23T07:39:28.083Z,10.03
2023-05-23T07:41:59.026Z,9.90
2023-05-23T07:44:27.392Z,9.73
2023-05-23T07:46:57.057Z,9.47
2023-05-23T07:49:26.744Z,8.77
2023-05-23T07:51:56.148Z,8.50
2023-05-23T07:54:24.419Z,9.10
2023-05-23T07:56:56.954Z,9.23
2023-05-23T07:59:26.945Z,9.23
2023-05-23T08:01:57.730Z,9.10
2023-05-23T08:04:27.936Z,8.53
2023-05-23T08:09:34.113Z,7.90
2023-05-23T08:12:02.513Z,8.90
2023-05-23T08:14:49.158Z,7.97
2023-05-23T08:17:34.530Z,7.93
2023-05-23T08:20:05.138Z,7.90
2023-05-23T08:22:33.485Z,8.10
2023-05-23T08:25:03.060Z,7.40
2023-05-23T08:27:32.434Z,7.17
2023-05-23T08:30:08.635Z,6.73
2023-05-23T08:32:42.132Z,5.57
2023-05-23T08:35:10.962Z,5.40
2023-05-23T08:37:46.180Z,5.00
2023-05-23T08:40:16.123Z,5.00
2023-05-23T08:42:49.441Z,4.50
2023-05-23T08:45:18.965Z,4.90
2023-05-23T08:47:48.818Z,4.13
2023-05-23T08:50:27.270Z,4.40
2023-05-23T08:52:57.377Z,3.47
2023-05-23T08:55:28.301Z,2.97
2023-05-23T08:58:00.460Z,3.77
2023-05-23T09:00:53.146Z,3.10
2023-05-23T09:03:24.024Z,3.00
2023-05-23T09:06:13.963Z,3.37
2023-05-23T09:08:46.023Z,3.73
2023-05-23T09:11:15.802Z,4.27
2023-05-23T09:13:46.075Z,3.85
2023-05-23T09:16:19.015Z,4.17
2023-05-23T09:18:53.170Z,3.77
2023-05-23T09:21:26.000Z,4.13
2023-05-23T09:24:07.304Z,3.88
2023-05-23T09:26:36.354Z,3.93
2023-05-23T09:29:07.465Z,3.55
2023-05-23T09:31:37.071Z,3.83
2023-05-23T09:34:10.878Z,4.50
2023-05-23T09:36:44.260Z,3.30
2023-05-23T09:39:14.052Z,3.83
2023-05-23T09:41:42.279Z,4.28
2023-05-23T09:44:11.034Z,3.47
2023-05-23T09:46:39.662Z,3.08
2023-05-23T09:49:18.991Z,3.50
2023-05-23T09:51:58.729Z,4.10
2023-05-23T09:54:27.263Z,3.53
2023-05-23T09:56:57.671Z,3.33
2023-05-23T09:59:29.585Z,3.53
2023-05-23T10:01:58.863Z,4.30
2023-05-23T10:04:32.630Z,3.83
2023-05-23T10:07:06.983Z,4.32
2023-05-23T10:09:39.114Z,3.45
2023-05-23T10:12:44.556Z,3.78
2023-05-23T10:15:16.801Z,3.28
2023-05-23T10:18:04.341Z,3.95
2023-05-23T10:20:36.583Z,4.95
2023-05-23T10:23:06.284Z,3.90
2023-05-23T10:25:37.165Z,3.70
2023-05-23T10:28:06.617Z,4.13
2023-05-23T10:30:36.010Z,3.70
2023-05-23T10:33:06.167Z,3.88
2023-05-23T10:35:47.288Z,3.70
2023-05-23T10:38:36.084Z,3.92
2023-05-23T10:41:11.854Z,4.47
2023-05-23T10:43:48.328Z,3.97
2023-05-23T10:46:16.901Z,3.60
2023-05-23T10:48:46.219Z,3.88
2023-05-23T10:51:17.317Z,4.07
2023-05-23T10:53:46.860Z,4.35
2023-05-23T10:56:22.454Z,4.07
2023-05-23T10:58:54.876Z,3.25
2023-05-23T11:01:23.809Z,3.70
2023-05-23T11:03:55.628Z,3.90
2023-05-23T11:06:35.247Z,3.85
2023-05-23T11:09:08.342Z,4.03
2023-05-23T11:11:53.926Z,4.22
2023-05-23T11:14:33.683Z,3.88
2023-05-23T11:17:02.613Z,3.70
2023-05-23T11:19:30.983Z,3.60
2023-05-23T11:22:02.138Z,4.32
2023-05-23T11:24:52.422Z,4.72
2023-05-23T11:27:27.895Z,4.47
2023-05-23T11:30:01.449Z,4.05
2023-05-23T11:32:31.295Z,4.65
2023-05-23T11:35:03.417Z,4.00
2023-05-23T11:37:33.455Z,5.00
2023-05-23T11:40:32.458Z,3.85
2023-05-23T11:43:01.884Z,4.22
2023-05-23T11:45:31.756Z,4.05
2023-05-23T11:48:00.324Z,4.40
2023-05-23T11:50:28.598Z,3.88
2023-05-23T11:52:58.235Z,3.33
2023-05-23T11:55:26.607Z,3.83
2023-05-23T11:57:57.558Z,3.53
2023-05-23T12:00:25.950Z,3.33
2023-05-23T12:02:54.367Z,3.33
2023-05-23T12:05:22.688Z,3.50
2023-05-23T12:07:51.181Z,4.50
2023-05-23T12:10:21.908Z,3.38
2023-05-23T12:12:52.520Z,4.22
2023-05-23T12:15:26.164Z,3.58
2023-05-23T12:17:55.488Z,3.78
2023-05-23T12:20:25.345Z,3.42
2023-05-23T12:22:55.491Z,3.63
2023-05-23T12:25:27.846Z,4.45
2023-05-23T12:27:56.375Z,3.95
2023-05-23T12:30:24.740Z,3.33
2023-05-23T12:32:53.057Z,3.72
2023-05-23T12:35:21.556Z,3.70
2023-05-23T12:37:49.843Z,3.30
2023-05-23T12:40:19.584Z,3.67
2023-05-23T12:42:52.636Z,3.83
2023-05-23T12:45:21.363Z,3.10
2023-05-23T12:47:51.386Z,3.17
2023-05-23T12:50:20.764Z,4.07
2023-05-23T12:52:49.014Z,3.72
2023-05-23T12:55:17.335Z,3.70
2023-05-23T12:57:45.661Z,3.22
2023-05-23T13:00:16.219Z,3.35
2023-05-23T13:02:44.585Z,3.50
2023-05-23T13:05:12.956Z,3.58
2023-05-23T13:07:41.305Z,2.88
2023-05-23T13:10:10.796Z,3.67
2023-05-23T13:12:39.062Z,3.88
2023-05-23T13:15:08.390Z,2.97
2023-05-23T13:17:38.040Z,3.30
2023-05-23T13:20:09.453Z,3.45
2023-05-23T13:22:37.760Z,3.45
2023-05-23T13:25:07.424Z,3.85
2023-05-23T13:27:36.215Z,3.08
2023-05-23T13:30:04.800Z,2.70
2023-05-23T13:32:33.238Z,3.42
2023-05-23T13:35:03.497Z,3.50
2023-05-23T13:37:32.198Z,3.42
2023-05-23T13:40:03.080Z,3.05
2023-05-23T13:42:31.453Z,3.15
2023-05-23T13:44:59.785Z,3.08
2023-05-23T13:47:28.047Z,3.53
2023-05-23T13:49:56.471Z,3.42
2023-05-23T13:52:26.626Z,3.42
2023-05-23T13:54:54.958Z,3.30
2023-05-23T13:57:23.295Z,3.63
2023-05-23T13:59:51.530Z,2.70
2023-05-23T14:02:19.840Z,4.05
2023-05-23T14:04:48.043Z,3.35
2023-05-23T14:07:16.948Z,2.80
2023-05-23T14:09:46.558Z,4.05
2023-05-23T14:12:14.842Z,3.10
2023-05-23T14:14:43.125Z,3.03
2023-05-23T14:17:16.025Z,3.80
2023-05-23T14:19:44.714Z,3.55
2023-05-23T14:22:13.042Z,3.83
2023-05-23T14:24:41.366Z,3.20
2023-05-23T14:27:11.532Z,3.25
2023-05-23T14:29:40.182Z,3.25
2023-05-23T14:32:08.526Z,2.90
2023-05-23T14:34:37.148Z,2.97
2023-05-23T14:37:05.929Z,3.22
2023-05-23T14:39:34.333Z,2.70
2023-05-23T14:42:03.097Z,3.10
2023-05-23T14:44:32.918Z,2.70
2023-05-23T14:47:01.256Z,3.05
2023-05-23T14:49:29.513Z,3.15
2023-05-23T14:51:57.956Z,3.55
2023-05-23T14:54:26.243Z,3.42
2023-05-23T14:56:54.478Z,3.20
2023-05-23T14:59:22.947Z,3.22
2023-05-23T15:01:52.757Z,2.72
2023-05-23T15:04:21.169Z,2.67
2023-05-23T15:06:50.922Z,3.55
2023-05-23T15:09:19.177Z,2.90
2023-05-23T15:11:49.385Z,3.28
2023-05-23T15:14:17.926Z,3.22
2023-05-23T15:16:48.876Z,3.15
2023-05-23T15:19:18.743Z,2.78
2023-05-23T15:21:51.219Z,2.80
2023-05-23T15:24:20.323Z,2.67
2023-05-23T15:26:48.895Z,3.00
2023-05-23T15:29:18.236Z,3.08
2023-05-23T15:31:46.689Z,2.47
2023-05-23T15:34:14.978Z,2.63
2023-05-23T15:36:44.591Z,2.92
2023-05-23T15:39:13.215Z,2.90
2023-05-23T15:41:41.530Z,2.83
2023-05-23T15:44:10.587Z,2.63
2023-05-23T15:46:40.345Z,2.83
2023-05-23T15:49:21.608Z,2.47
2023-05-23T15:51:55.614Z,2.80
2023-05-23T15:54:24.048Z,2.78
2023-05-23T15:56:52.263Z,3.15
2023-05-23T15:59:21.172Z,3.10
2023-05-23T16:01:49.544Z,2.75
2023-05-23T16:04:17.796Z,2.95
2023-05-23T16:06:46.047Z,2.70
2023-05-23T16:09:15.682Z,2.78
2023-05-23T16:11:44.133Z,2.92
2023-05-23T16:14:12.385Z,3.47
2023-05-23T16:16:40.865Z,2.95
2023-05-23T16:19:09.252Z,3.25
2023-05-23T16:21:37.573Z,3.25
2023-05-23T16:24:06.548Z,3.80
2023-05-23T16:26:36.195Z,2.50
2023-05-23T16:29:04.417Z,2.53
2023-05-23T16:31:32.738Z,2.63
2023-05-23T16:34:01.045Z,2.55
2023-05-23T16:36:29.581Z,2.72
2023-05-23T16:38:58.024Z,2.63
2023-05-23T16:41:26.405Z,2.33
2023-05-23T16:43:56.423Z,2.67
2023-05-23T16:46:24.717Z,2.75
2023-05-23T16:48:53.154Z,2.60
2023-05-23T16:51:21.399Z,2.47
2023-05-23T16:53:49.709Z,2.53
2023-05-23T16:56:17.944Z,2.33
2023-05-23T16:58:46.671Z,2.03
2023-05-23T17:01:17.093Z,2.95
2023-05-23T17:03:45.599Z,4.22
2023-05-23T17:06:14.033Z,2.85
2023-05-23T17:08:42.266Z,2.90
2023-05-23T17:11:10.570Z,2.67
2023-05-23T17:13:38.833Z,2.60
2023-05-23T17:16:07.131Z,2.97
2023-05-23T17:18:37.299Z,2.40
2023-05-23T17:21:05.624Z,2.45
2023-05-23T17:23:33.865Z,2.60
2023-05-23T17:26:02.130Z,2.63
2023-05-23T17:28:30.400Z,2.85
2023-05-23T17:30:58.633Z,3.08
2023-05-23T17:33:27.051Z,2.47
2023-05-23T17:35:56.710Z,3.00
2023-05-23T17:38:25.141Z,2.80
2023-05-23T17:40:53.573Z,2.78
2023-05-23T17:43:22.046Z,2.65
2023-05-23T17:45:50.467Z,2.58
2023-05-23T17:48:18.787Z,2.47
2023-05-23T17:50:47.133Z,2.72
2023-05-23T17:53:16.914Z,3.00
2023-05-23T17:55:45.232Z,3.00
2023-05-23T17:58:13.641Z,3.05
2023-05-23T18:00:42.048Z,2.80
2023-05-23T18:03:11.275Z,3.30
2023-05-23T18:05:39.623Z,2.70
2023-05-23T18:08:07.942Z,2.70
2023-05-23T18:10:38.118Z,3.10
2023-05-23T18:13:06.445Z,5.40
2023-05-23T18:15:34.874Z,2.73
2023-05-23T18:18:03.207Z,2.70
2023-05-23T18:20:31.576Z,2.70
2023-05-23T18:22:59.772Z,2.90
2023-05-23T18:25:28.377Z,2.23
2023-05-23T18:27:59.541Z,2.50
2023-05-23T18:30:28.449Z,3.10
2023-05-23T18:32:57.074Z,3.00
2023-05-23T18:35:26.474Z,3.00
2023-05-23T18:37:55.027Z,2.70
2023-05-23T18:40:24.297Z,2.93
2023-05-23T18:42:52.708Z,2.70
2023-05-23T18:45:22.533Z,2.40
2023-05-23T18:47:51.197Z,2.90
2023-05-23T18:50:20.359Z,3.10
2023-05-23T18:52:48.729Z,2.67
2023-05-23T18:55:17.541Z,2.90
2023-05-23T18:57:45.851Z,3.30
2023-05-23T19:00:15.124Z,3.00
2023-05-23T19:02:45.826Z,3.17
2023-05-23T19:05:14.674Z,2.93
2023-05-23T19:07:42.912Z,2.70
2023-05-23T19:10:12.126Z,2.73
2023-05-23T19:12:40.623Z,2.80
2023-05-23T19:15:11.339Z,2.53
2023-05-23T19:17:39.847Z,2.77
2023-05-23T19:20:10.674Z,2.43
2023-05-23T19:22:50.997Z,3.17
2023-05-23T19:25:21.016Z,2.63
2023-05-23T19:27:49.336Z,2.20
2023-05-23T19:30:17.620Z,3.17
2023-05-23T19:32:45.938Z,2.90
2023-05-23T19:35:16.978Z,2.60
2023-05-23T19:37:46.020Z,3.07
2023-05-23T19:40:14.602Z,2.83
2023-05-23T19:42:42.876Z,3.30
2023-05-23T19:45:12.296Z,2.93
2023-05-23T19:47:40.868Z,2.97
2023-05-23T19:50:11.953Z,2.20
2023-05-23T19:52:42.312Z,3.47
2023-05-23T19:55:11.194Z,3.00
2023-05-23T19:57:39.499Z,2.63
2023-05-23T20:00:09.913Z,3.10
2023-05-23T20:02:38.587Z,2.70
2023-05-23T20:05:10.128Z,2.53
2023-05-23T20:07:39.693Z,2.40
2023-05-23T20:10:10.314Z,2.83
2023-05-23T20:12:38.639Z,2.80
2023-05-23T20:15:07.881Z,2.87
2023-05-23T20:17:36.422Z,2.63
2023-05-23T20:20:05.142Z,2.30
2023-05-23T20:22:33.469Z,2.73
2023-05-23T20:25:01.781Z,3.00
2023-05-23T20:27:31.547Z,3.23
2023-05-23T20:30:00.949Z,2.40
2023-05-23T20:32:29.326Z,3.07
2023-05-23T20:34:57.585Z,2.47
2023-05-23T20:37:28.224Z,3.20
2023-05-23T20:39:56.697Z,2.87
2023-05-23T20:42:26.646Z,3.13
2023-05-23T20:44:57.082Z,2.63
2023-05-23T20:47:25.923Z,3.40
2023-05-23T20:49:54.254Z,2.43
2023-05-23T20:52:23.002Z,2.83
2023-05-23T20:54:52.442Z,2.37
2023-05-23T20:57:21.990Z,3.00
2023-05-23T20:59:50.513Z,2.80
2023-05-23T21:02:20.179Z,2.63
2023-05-23T21:04:48.536Z,2.90
2023-05-23T21:07:16.898Z,2.80
2023-05-23T21:09:45.188Z,3.80
2023-05-23T21:12:13.478Z,3.17
2023-05-23T21:14:41.778Z,3.00
2023-05-23T21:17:16.769Z,2.70
2023-05-23T21:19:46.591Z,2.80
2023-05-23T21:22:14.873Z,2.63
2023-05-23T21:24:43.408Z,3.07
2023-05-23T21:27:12.202Z,3.73
2023-05-23T21:29:40.633Z,2.87
2023-05-23T21:32:08.974Z,2.70
2023-05-23T21:34:37.231Z,3.63
2023-05-23T21:37:07.014Z,3.60
2023-05-23T21:39:50.057Z,2.80
2023-05-23T21:42:20.794Z,2.70
2023-05-23T21:44:49.486Z,3.40
2023-05-23T21:47:17.734Z,3.03
2023-05-23T21:49:46.035Z,3.20
2023-05-23T21:52:15.759Z,3.10
2023-05-23T21:54:45.961Z,2.80
2023-05-23T21:57:14.322Z,3.20
2023-05-23T21:59:43.767Z,3.10
2023-05-23T22:02:12.296Z,3.40
2023-05-23T22:04:40.725Z,2.87
2023-05-23T22:07:08.991Z,3.00
2023-05-23T22:09:38.622Z,3.00
2023-05-23T22:12:07.566Z,2.97
2023-05-23T22:14:35.844Z,3.57
2023-05-23T22:17:04.410Z,3.20
2023-05-23T22:19:32.674Z,3.43
2023-05-23T22:22:01.112Z,3.80
2023-05-23T22:24:29.630Z,3.70
2023-05-23T22:27:00.731Z,3.60
2023-05-23T22:29:29.062Z,3.33
2023-05-23T22:31:57.354Z,3.70
2023-05-23T22:34:25.796Z,3.60
2023-05-23T22:36:54.044Z,3.63
2023-05-23T22:39:22.284Z,3.17
2023-05-23T22:41:50.653Z,2.90
2023-05-23T22:44:20.368Z,3.50
2023-05-23T22:46:48.619Z,3.83
2023-05-23T22:49:16.997Z,3.97
2023-05-23T22:51:45.338Z,3.00
2023-05-23T22:54:13.599Z,4.53
2023-05-23T22:56:41.900Z,3.10
2023-05-23T22:59:10.269Z,3.13
2023-05-23T23:01:40.025Z,3.07
2023-05-23T23:04:08.317Z,3.47
2023-05-23T23:06:36.584Z,4.20
2023-05-23T23:09:05.637Z,3.90
2023-05-23T23:11:33.861Z,3.73
2023-05-23T23:14:02.205Z,3.40
2023-05-23T23:16:30.741Z,3.43
2023-05-23T23:19:00.440Z,3.67
2023-05-23T23:21:28.698Z,3.40
2023-05-23T23:23:56.912Z,3.50
2023-05-23T23:26:25.208Z,4.60
2023-05-23T23:28:53.476Z,3.33
2023-05-23T23:31:21.813Z,3.43
2023-05-23T23:33:50.066Z,3.37
2023-05-23T23:36:19.658Z,3.97
2023-05-23T23:38:48.157Z,3.53
2023-05-23T23:41:16.388Z,3.00
2023-05-23T23:43:44.638Z,3.30
2023-05-23T23:46:13.367Z,4.17
2023-05-23T23:48:41.624Z,3.80
2023-05-23T23:51:09.996Z,4.57
2023-05-23T23:53:39.675Z,3.73
2023-05-23T23:56:07.984Z,4.00
2023-05-23T23:58:36.479Z,3.50
